Terminal Aerodrome Forecast
Issued by NWS

Home | Current Version | Previous Version | Text Only | Print | Product List | Glossary On
Versions: 1 2 3 4 5 6 7 8 9 10 11 12 13 14 15 16 17 18 19 20 21 22 23 24
000
FTUS45 KGJT 060547
TAFMTJ
TAF
KMTJ 060547Z 0606/0706 14009KT P6SM SCT250
     FM061400 18010KT P6SM BKN150
     FM061700 31012KT P6SM VCSH SCT100 BKN250
     FM062000 20014G24KT P6SM VCSH SCT100 BKN200
     FM070000 18011KT P6SM VCSH BKN100
     FM070400 15008KT P6SM VCSH BKN080=

USA.gov is the U.S. government's official web portal to all federal, state and local government web resources and services.